sensor_id;sensor_type;location;lat;lon;timestamp;P1;durP1;ratioP1;P2;durP2;ratioP2
3601;SDS011;1815;50.950;6.920;2023-01-01T00:01:29;11.30;;;7.93;;
3601;SDS011;1815;50.950;6.920;2023-01-01T00:03:56;10.50;;;8.10;;
3601;SDS011;1815;50.950;6.920;2023-01-01T00:06:22;9.93;;;7.37;;
3601;SDS011;1815;50.950;6.920;2023-01-01T00:08:49;9.67;;;6.90;;
3601;SDS011;1815;50.950;6.920;2023-01-01T00:11:38;8.80;;;6.00;;
3601;SDS011;1815;50.950;6.920;2023-01-01T00:14:03;6.47;;;5.57;;
3601;SDS011;1815;50.950;6.920;2023-01-01T00:16:29;10.83;;;6.57;;
3601;SDS011;1815;50.950;6.920;2023-01-01T00:18:55;10.57;;;5.37;;
3601;SDS011;1815;50.950;6.920;2023-01-01T00:21:21;11.57;;;5.00;;
3601;SDS011;1815;50.950;6.920;2023-01-01T00:23:46;10.90;;;5.00;;
3601;SDS011;1815;50.950;6.920;2023-01-01T00:26:13;6.97;;;3.73;;
3601;SDS011;1815;50.950;6.920;2023-01-01T00:28:40;6.70;;;4.00;;
3601;SDS011;1815;50.950;6.920;2023-01-01T00:31:07;5.37;;;3.80;;
3601;SDS011;1815;50.950;6.920;2023-01-01T00:33:34;3.83;;;3.33;;
3601;SDS011;1815;50.950;6.920;2023-01-01T00:36:06;5.00;;;2.77;;
3601;SDS011;1815;50.950;6.920;2023-01-01T00:38:36;4.40;;;2.97;;
3601;SDS011;1815;50.950;6.920;2023-01-01T00:41:02;4.23;;;2.70;;
3601;SDS011;1815;50.950;6.920;2023-01-01T00:43:28;4.50;;;2.50;;
3601;SDS011;1815;50.950;6.920;2023-01-01T00:45:54;5.33;;;2.97;;
3601;SDS011;1815;50.950;6.920;2023-01-01T00:48:20;4.70;;;3.03;;
3601;SDS011;1815;50.950;6.920;2023-01-01T00:50:46;4.33;;;2.67;;
3601;SDS011;1815;50.950;6.920;2023-01-01T00:53:12;4.63;;;2.80;;
3601;SDS011;1815;50.950;6.920;2023-01-01T00:55:38;4.10;;;2.17;;
3601;SDS011;1815;50.950;6.920;2023-01-01T00:58:04;5.37;;;1.53;;
3601;SDS011;1815;50.950;6.920;2023-01-01T01:00:30;3.10;;;1.47;;
3601;SDS011;1815;50.950;6.920;2023-01-01T01:02:56;2.73;;;1.80;;
3601;SDS011;1815;50.950;6.920;2023-01-01T01:05:22;4.20;;;1.30;;
3601;SDS011;1815;50.950;6.920;2023-01-01T01:07:48;5.10;;;1.50;;
3601;SDS011;1815;50.950;6.920;2023-01-01T01:10:13;2.57;;;1.37;;
3601;SDS011;1815;50.950;6.920;2023-01-01T01:12:39;1.73;;;0.80;;
3601;SDS011;1815;50.950;6.920;2023-01-01T01:15:06;3.00;;;1.20;;
3601;SDS011;1815;50.950;6.920;2023-01-01T01:17:32;2.63;;;0.97;;
3601;SDS011;1815;50.950;6.920;2023-01-01T01:19:58;2.83;;;1.00;;
3601;SDS011;1815;50.950;6.920;2023-01-01T01:22:24;5.33;;;1.63;;
3601;SDS011;1815;50.950;6.920;2023-01-01T01:24:50;2.07;;;1.03;;
3601;SDS011;1815;50.950;6.920;2023-01-01T01:27:16;5.43;;;2.10;;
3601;SDS011;1815;50.950;6.920;2023-01-01T01:29:41;2.27;;;1.00;;
3601;SDS011;1815;50.950;6.920;2023-01-01T01:32:08;3.13;;;1.07;;
3601;SDS011;1815;50.950;6.920;2023-01-01T01:34:35;2.30;;;1.10;;
3601;SDS011;1815;50.950;6.920;2023-01-01T01:37:00;3.20;;;1.10;;
3601;SDS011;1815;50.950;6.920;2023-01-01T01:39:26;3.43;;;0.93;;
3601;SDS011;1815;50.950;6.920;2023-01-01T01:41:52;1.97;;;0.93;;
3601;SDS011;1815;50.950;6.920;2023-01-01T01:50:10;1.90;;;0.93;;
3601;SDS011;1815;50.950;6.920;2023-01-01T01:52:41;2.47;;;1.50;;
3601;SDS011;1815;50.950;6.920;2023-01-01T01:55:18;2.00;;;0.90;;
3601;SDS011;1815;50.950;6.920;2023-01-01T01:57:44;6.70;;;1.10;;
3601;SDS011;1815;50.950;6.920;2023-01-01T02:00:09;3.17;;;1.27;;
3601;SDS011;1815;50.950;6.920;2023-01-01T02:02:37;5.07;;;1.33;;
3601;SDS011;1815;50.950;6.920;2023-01-01T02:05:10;4.60;;;1.10;;
3601;SDS011;1815;50.950;6.920;2023-01-01T02:07:37;3.10;;;1.00;;
3601;SDS011;1815;50.950;6.920;2023-01-01T02:10:03;2.30;;;1.00;;
3601;SDS011;1815;50.950;6.920;2023-01-01T02:12:31;5.10;;;1.30;;
3601;SDS011;1815;50.950;6.920;2023-01-01T02:14:56;5.30;;;1.97;;
3601;SDS011;1815;50.950;6.920;2023-01-01T02:23:25;1.87;;;0.70;;
3601;SDS011;1815;50.950;6.920;2023-01-01T02:31:50;3.43;;;0.80;;
3601;SDS011;1815;50.950;6.920;2023-01-01T02:35:39;2.57;;;0.93;;
3601;SDS011;1815;50.950;6.920;2023-01-01T02:40:52;3.10;;;0.97;;
3601;SDS011;1815;50.950;6.920;2023-01-01T02:43:27;2.07;;;0.90;;
3601;SDS011;1815;50.950;6.920;2023-01-01T02:45:53;2.73;;;0.87;;
3601;SDS011;1815;50.950;6.920;2023-01-01T02:56:49;2.07;;;0.90;;
3601;SDS011;1815;50.950;6.920;2023-01-01T03:08:47;1.63;;;0.80;;
3601;SDS011;1815;50.950;6.920;2023-01-01T03:11:19;4.73;;;0.90;;
3601;SDS011;1815;50.950;6.920;2023-01-01T03:16:27;1.70;;;0.70;;
3601;SDS011;1815;50.950;6.920;2023-01-01T03:19:18;1.67;;;0.70;;
3601;SDS011;1815;50.950;6.920;2023-01-01T03:27:24;3.87;;;1.00;;
3601;SDS011;1815;50.950;6.920;2023-01-01T03:29:59;5.07;;;0.80;;
3601;SDS011;1815;50.950;6.920;2023-01-01T03:32:40;4.57;;;0.70;;
3601;SDS011;1815;50.950;6.920;2023-01-01T03:38:14;2.40;;;0.70;;
3601;SDS011;1815;50.950;6.920;2023-01-01T03:40:44;1.50;;;0.70;;
3601;SDS011;1815;50.950;6.920;2023-01-01T03:43:13;1.87;;;0.90;;
3601;SDS011;1815;50.950;6.920;2023-01-01T03:45:48;2.03;;;0.70;;
3601;SDS011;1815;50.950;6.920;2023-01-01T03:48:17;3.40;;;0.90;;
3601;SDS011;1815;50.950;6.920;2023-01-01T03:50:54;1.93;;;0.80;;
3601;SDS011;1815;50.950;6.920;2023-01-01T03:53:39;5.73;;;1.00;;
3601;SDS011;1815;50.950;6.920;2023-01-01T03:56:12;3.17;;;0.90;;
3601;SDS011;1815;50.950;6.920;2023-01-01T03:58:53;3.03;;;0.90;;
3601;SDS011;1815;50.950;6.920;2023-01-01T04:01:35;4.73;;;0.90;;
3601;SDS011;1815;50.950;6.920;2023-01-01T04:04:05;1.37;;;0.60;;
3601;SDS011;1815;50.950;6.920;2023-01-01T04:06:32;1.67;;;0.70;;
3601;SDS011;1815;50.950;6.920;2023-01-01T04:08:58;2.27;;;0.80;;
3601;SDS011;1815;50.950;6.920;2023-01-01T04:11:27;3.07;;;0.80;;
3601;SDS011;1815;50.950;6.920;2023-01-01T04:16:58;2.87;;;0.80;;
3601;SDS011;1815;50.950;6.920;2023-01-01T04:19:24;1.97;;;0.60;;
3601;SDS011;1815;50.950;6.920;2023-01-01T04:21:50;4.20;;;0.93;;
3601;SDS011;1815;50.950;6.920;2023-01-01T04:24:16;2.33;;;0.90;;
3601;SDS011;1815;50.950;6.920;2023-01-01T04:26:42;3.13;;;0.83;;
3601;SDS011;1815;50.950;6.920;2023-01-01T04:29:07;3.10;;;0.80;;
3601;SDS011;1815;50.950;6.920;2023-01-01T04:31:33;2.33;;;0.80;;
3601;SDS011;1815;50.950;6.920;2023-01-01T04:33:59;3.20;;;1.00;;
3601;SDS011;1815;50.950;6.920;2023-01-01T04:36:25;4.10;;;0.90;;
3601;SDS011;1815;50.950;6.920;2023-01-01T04:38:51;3.27;;;1.10;;
3601;SDS011;1815;50.950;6.920;2023-01-01T04:41:17;1.70;;;0.80;;
3601;SDS011;1815;50.950;6.920;2023-01-01T04:43:45;3.30;;;0.93;;
3601;SDS011;1815;50.950;6.920;2023-01-01T04:46:14;4.70;;;1.00;;
3601;SDS011;1815;50.950;6.920;2023-01-01T04:48:41;1.70;;;1.23;;
3601;SDS011;1815;50.950;6.920;2023-01-01T04:51:08;2.07;;;0.77;;
3601;SDS011;1815;50.950;6.920;2023-01-01T04:53:35;3.00;;;0.80;;
3601;SDS011;1815;50.950;6.920;2023-01-01T04:56:02;2.07;;;0.80;;
3601;SDS011;1815;50.950;6.920;2023-01-01T04:58:32;2.63;;;0.90;;
3601;SDS011;1815;50.950;6.920;2023-01-01T05:01:00;3.23;;;0.80;;
3601;SDS011;1815;50.950;6.920;2023-01-01T05:03:26;2.90;;;0.90;;
3601;SDS011;1815;50.950;6.920;2023-01-01T05:05:59;2.10;;;0.80;;
3601;SDS011;1815;50.950;6.920;2023-01-01T05:08:29;8.87;;;7.83;;
3601;SDS011;1815;50.950;6.920;2023-01-01T05:11:00;5.10;;;4.43;;
3601;SDS011;1815;50.950;6.920;2023-01-01T05:13:26;4.17;;;2.07;;
3601;SDS011;1815;50.950;6.920;2023-01-01T05:15:52;2.63;;;1.10;;
3601;SDS011;1815;50.950;6.920;2023-01-01T05:18:18;2.97;;;1.33;;
3601;SDS011;1815;50.950;6.920;2023-01-01T05:20:43;4.50;;;1.10;;
3601;SDS011;1815;50.950;6.920;2023-01-01T05:23:09;5.30;;;1.57;;
3601;SDS011;1815;50.950;6.920;2023-01-01T05:25:35;2.17;;;1.10;;
3601;SDS011;1815;50.950;6.920;2023-01-01T05:28:00;2.60;;;0.80;;
3601;SDS011;1815;50.950;6.920;2023-01-01T05:30:27;4.03;;;0.80;;
3601;SDS011;1815;50.950;6.920;2023-01-01T05:32:52;3.40;;;1.50;;
3601;SDS011;1815;50.950;6.920;2023-01-01T05:35:18;2.70;;;0.90;;
3601;SDS011;1815;50.950;6.920;2023-01-01T05:37:44;2.23;;;0.80;;
3601;SDS011;1815;50.950;6.920;2023-01-01T05:40:09;3.10;;;0.93;;
3601;SDS011;1815;50.950;6.920;2023-01-01T05:42:35;2.53;;;1.03;;
3601;SDS011;1815;50.950;6.920;2023-01-01T05:45:02;6.53;;;1.30;;
3601;SDS011;1815;50.950;6.920;2023-01-01T05:47:28;4.30;;;0.90;;
3601;SDS011;1815;50.950;6.920;2023-01-01T05:49:54;2.17;;;0.80;;
3601;SDS011;1815;50.950;6.920;2023-01-01T05:52:19;2.00;;;0.80;;
3601;SDS011;1815;50.950;6.920;2023-01-01T05:54:46;4.90;;;0.97;;
3601;SDS011;1815;50.950;6.920;2023-01-01T05:57:12;2.30;;;0.90;;
3601;SDS011;1815;50.950;6.920;2023-01-01T05:59:37;2.43;;;0.80;;
3601;SDS011;1815;50.950;6.920;2023-01-01T06:02:03;5.73;;;0.87;;
3601;SDS011;1815;50.950;6.920;2023-01-01T06:04:29;3.47;;;1.00;;
3601;SDS011;1815;50.950;6.920;2023-01-01T06:06:54;2.10;;;0.90;;
3601;SDS011;1815;50.950;6.920;2023-01-01T06:09:20;4.53;;;0.93;;
3601;SDS011;1815;50.950;6.920;2023-01-01T06:11:46;2.47;;;0.83;;
3601;SDS011;1815;50.950;6.920;2023-01-01T06:14:11;2.47;;;1.10;;
3601;SDS011;1815;50.950;6.920;2023-01-01T06:16:37;2.60;;;1.30;;
3601;SDS011;1815;50.950;6.920;2023-01-01T06:19:02;3.23;;;0.83;;
3601;SDS011;1815;50.950;6.920;2023-01-01T06:21:28;4.07;;;0.90;;
3601;SDS011;1815;50.950;6.920;2023-01-01T06:23:55;2.47;;;1.07;;
3601;SDS011;1815;50.950;6.920;2023-01-01T06:26:23;5.37;;;1.17;;
3601;SDS011;1815;50.950;6.920;2023-01-01T06:28:50;1.97;;;0.80;;
3601;SDS011;1815;50.950;6.920;2023-01-01T06:31:17;3.63;;;1.10;;
3601;SDS011;1815;50.950;6.920;2023-01-01T06:33:44;4.43;;;1.33;;
3601;SDS011;1815;50.950;6.920;2023-01-01T06:36:12;2.23;;;0.90;;
3601;SDS011;1815;50.950;6.920;2023-01-01T06:38:40;3.90;;;1.13;;
3601;SDS011;1815;50.950;6.920;2023-01-01T06:41:11;2.63;;;1.03;;
3601;SDS011;1815;50.950;6.920;2023-01-01T06:43:38;2.17;;;1.00;;
3601;SDS011;1815;50.950;6.920;2023-01-01T06:46:47;6.63;;;0.90;;
3601;SDS011;1815;50.950;6.920;2023-01-01T06:48:56;4.33;;;1.03;;
3601;SDS011;1815;50.950;6.920;2023-01-01T06:51:25;2.27;;;0.83;;
3601;SDS011;1815;50.950;6.920;2023-01-01T06:53:53;3.23;;;1.00;;
3601;SDS011;1815;50.950;6.920;2023-01-01T06:56:21;2.87;;;1.60;;
3601;SDS011;1815;50.950;6.920;2023-01-01T06:58:47;2.87;;;0.97;;
3601;SDS011;1815;50.950;6.920;2023-01-01T07:01:14;5.70;;;1.20;;
3601;SDS011;1815;50.950;6.920;2023-01-01T07:03:54;3.27;;;0.97;;
3601;SDS011;1815;50.950;6.920;2023-01-01T07:06:21;2.33;;;1.10;;
3601;SDS011;1815;50.950;6.920;2023-01-01T07:08:48;2.90;;;1.07;;
3601;SDS011;1815;50.950;6.920;2023-01-01T07:11:14;3.90;;;1.10;;
3601;SDS011;1815;50.950;6.920;2023-01-01T07:13:42;3.37;;;0.90;;
3601;SDS011;1815;50.950;6.920;2023-01-01T07:16:07;4.17;;;1.10;;
3601;SDS011;1815;50.950;6.920;2023-01-01T07:18:33;1.80;;;0.87;;
3601;SDS011;1815;50.950;6.920;2023-01-01T07:21:02;4.07;;;1.03;;
3601;SDS011;1815;50.950;6.920;2023-01-01T07:23:31;3.77;;;1.33;;
3601;SDS011;1815;50.950;6.920;2023-01-01T07:25:59;2.63;;;1.00;;
3601;SDS011;1815;50.950;6.920;2023-01-01T07:28:25;4.83;;;0.87;;
3601;SDS011;1815;50.950;6.920;2023-01-01T07:30:51;3.30;;;0.93;;
3601;SDS011;1815;50.950;6.920;2023-01-01T07:33:21;4.70;;;1.53;;
3601;SDS011;1815;50.950;6.920;2023-01-01T07:35:47;1.80;;;0.87;;
3601;SDS011;1815;50.950;6.920;2023-01-01T07:38:13;3.20;;;1.03;;
3601;SDS011;1815;50.950;6.920;2023-01-01T07:40:39;2.27;;;1.03;;
3601;SDS011;1815;50.950;6.920;2023-01-01T07:43:06;4.70;;;0.77;;
3601;SDS011;1815;50.950;6.920;2023-01-01T07:45:32;5.07;;;1.10;;
3601;SDS011;1815;50.950;6.920;2023-01-01T07:47:59;3.70;;;0.97;;
3601;SDS011;1815;50.950;6.920;2023-01-01T07:50:27;3.63;;;1.00;;
3601;SDS011;1815;50.950;6.920;2023-01-01T07:52:54;1.87;;;1.03;;
3601;SDS011;1815;50.950;6.920;2023-01-01T07:55:20;4.50;;;2.40;;
3601;SDS011;1815;50.950;6.920;2023-01-01T07:57:46;2.90;;;1.10;;
3601;SDS011;1815;50.950;6.920;2023-01-01T08:00:15;2.40;;;0.90;;
3601;SDS011;1815;50.950;6.920;2023-01-01T08:02:42;3.60;;;1.07;;
3601;SDS011;1815;50.950;6.920;2023-01-01T08:05:08;1.90;;;0.90;;
3601;SDS011;1815;50.950;6.920;2023-01-01T08:07:34;4.07;;;0.90;;
3601;SDS011;1815;50.950;6.920;2023-01-01T08:10:00;2.70;;;1.00;;
3601;SDS011;1815;50.950;6.920;2023-01-01T08:12:26;3.00;;;0.90;;
3601;SDS011;1815;50.950;6.920;2023-01-01T08:14:52;4.60;;;1.07;;
3601;SDS011;1815;50.950;6.920;2023-01-01T08:17:17;1.97;;;0.73;;
3601;SDS011;1815;50.950;6.920;2023-01-01T08:19:43;2.97;;;0.80;;
3601;SDS011;1815;50.950;6.920;2023-01-01T08:22:11;2.63;;;0.80;;
3601;SDS011;1815;50.950;6.920;2023-01-01T08:24:36;3.30;;;0.90;;
3601;SDS011;1815;50.950;6.920;2023-01-01T08:27:02;2.80;;;1.00;;
3601;SDS011;1815;50.950;6.920;2023-01-01T08:29:28;3.33;;;0.90;;
3601;SDS011;1815;50.950;6.920;2023-01-01T08:31:54;2.23;;;1.13;;
3601;SDS011;1815;50.950;6.920;2023-01-01T08:34:19;3.17;;;1.00;;
3601;SDS011;1815;50.950;6.920;2023-01-01T08:36:45;2.70;;;1.10;;
3601;SDS011;1815;50.950;6.920;2023-01-01T08:39:11;5.23;;;0.80;;
3601;SDS011;1815;50.950;6.920;2023-01-01T08:41:36;2.37;;;1.10;;
3601;SDS011;1815;50.950;6.920;2023-01-01T08:44:02;2.67;;;1.10;;
3601;SDS011;1815;50.950;6.920;2023-01-01T08:46:28;2.63;;;0.90;;
3601;SDS011;1815;50.950;6.920;2023-01-01T08:48:53;5.90;;;1.10;;
3601;SDS011;1815;50.950;6.920;2023-01-01T08:51:19;4.80;;;1.10;;
3601;SDS011;1815;50.950;6.920;2023-01-01T08:53:45;5.23;;;0.93;;
3601;SDS011;1815;50.950;6.920;2023-01-01T08:56:11;2.53;;;0.90;;
3601;SDS011;1815;50.950;6.920;2023-01-01T08:58:38;4.43;;;1.00;;
3601;SDS011;1815;50.950;6.920;2023-01-01T09:01:05;1.73;;;0.70;;
3601;SDS011;1815;50.950;6.920;2023-01-01T09:03:33;2.50;;;1.00;;
3601;SDS011;1815;50.950;6.920;2023-01-01T09:05:59;3.90;;;1.23;;
3601;SDS011;1815;50.950;6.920;2023-01-01T09:08:24;3.60;;;1.10;;
3601;SDS011;1815;50.950;6.920;2023-01-01T09:10:51;9.13;;;2.47;;
3601;SDS011;1815;50.950;6.920;2023-01-01T09:13:19;2.60;;;1.00;;
3601;SDS011;1815;50.950;6.920;2023-01-01T09:15:46;2.70;;;1.10;;
3601;SDS011;1815;50.950;6.920;2023-01-01T09:18:13;2.73;;;0.90;;
3601;SDS011;1815;50.950;6.920;2023-01-01T09:20:39;3.00;;;0.80;;
3601;SDS011;1815;50.950;6.920;2023-01-01T09:23:05;2.30;;;1.00;;
3601;SDS011;1815;50.950;6.920;2023-01-01T09:25:32;5.00;;;1.43;;
3601;SDS011;1815;50.950;6.920;2023-01-01T09:27:59;2.13;;;0.70;;
3601;SDS011;1815;50.950;6.920;2023-01-01T09:30:26;2.30;;;0.90;;
3601;SDS011;1815;50.950;6.920;2023-01-01T09:32:52;2.03;;;0.80;;
3601;SDS011;1815;50.950;6.920;2023-01-01T09:35:18;2.83;;;1.07;;
3601;SDS011;1815;50.950;6.920;2023-01-01T09:37:44;3.63;;;1.20;;
3601;SDS011;1815;50.950;6.920;2023-01-01T09:40:21;2.17;;;0.80;;
3601;SDS011;1815;50.950;6.920;2023-01-01T09:42:57;2.40;;;0.70;;
3601;SDS011;1815;50.950;6.920;2023-01-01T09:46:01;3.53;;;1.00;;
3601;SDS011;1815;50.950;6.920;2023-01-01T09:48:30;2.37;;;1.13;;
3601;SDS011;1815;50.950;6.920;2023-01-01T09:50:58;2.10;;;0.80;;
3601;SDS011;1815;50.950;6.920;2023-01-01T09:56:00;3.30;;;1.10;;
3601;SDS011;1815;50.950;6.920;2023-01-01T09:58:36;4.53;;;1.20;;
3601;SDS011;1815;50.950;6.920;2023-01-01T10:01:08;5.90;;;0.93;;
3601;SDS011;1815;50.950;6.920;2023-01-01T10:03:48;3.30;;;0.90;;
3601;SDS011;1815;50.950;6.920;2023-01-01T10:06:26;3.20;;;0.97;;
3601;SDS011;1815;50.950;6.920;2023-01-01T10:14:37;1.90;;;0.80;;
3601;SDS011;1815;50.950;6.920;2023-01-01T10:17:11;2.37;;;0.90;;
3601;SDS011;1815;50.950;6.920;2023-01-01T10:19:48;3.40;;;0.80;;
3601;SDS011;1815;50.950;6.920;2023-01-01T10:22:30;2.93;;;1.00;;
3601;SDS011;1815;50.950;6.920;2023-01-01T10:25:20;1.90;;;0.90;;
3601;SDS011;1815;50.950;6.920;2023-01-01T10:27:55;4.47;;;1.20;;
3601;SDS011;1815;50.950;6.920;2023-01-01T10:30:24;2.37;;;1.03;;
3601;SDS011;1815;50.950;6.920;2023-01-01T10:32:51;6.80;;;1.10;;
3601;SDS011;1815;50.950;6.920;2023-01-01T10:35:19;2.30;;;0.90;;
3601;SDS011;1815;50.950;6.920;2023-01-01T10:37:58;4.00;;;0.90;;
3601;SDS011;1815;50.950;6.920;2023-01-01T10:40:27;3.20;;;1.10;;
3601;SDS011;1815;50.950;6.920;2023-01-01T10:42:57;6.73;;;1.67;;
3601;SDS011;1815;50.950;6.920;2023-01-01T10:45:28;5.20;;;1.30;;
3601;SDS011;1815;50.950;6.920;2023-01-01T10:48:11;3.90;;;0.90;;
3601;SDS011;1815;50.950;6.920;2023-01-01T10:55:49;2.83;;;1.00;;
3601;SDS011;1815;50.950;6.920;2023-01-01T10:58:33;3.03;;;1.10;;
3601;SDS011;1815;50.950;6.920;2023-01-01T11:01:18;4.00;;;0.93;;
3601;SDS011;1815;50.950;6.920;2023-01-01T11:06:36;3.83;;;1.17;;
3601;SDS011;1815;50.950;6.920;2023-01-01T11:11:55;4.10;;;1.10;;
3601;SDS011;1815;50.950;6.920;2023-01-01T11:14:43;5.20;;;2.03;;
3601;SDS011;1815;50.950;6.920;2023-01-01T11:17:21;2.73;;;1.10;;
3601;SDS011;1815;50.950;6.920;2023-01-01T11:19:49;3.60;;;1.03;;
3601;SDS011;1815;50.950;6.920;2023-01-01T11:27:46;3.10;;;1.00;;
3601;SDS011;1815;50.950;6.920;2023-01-01T11:32:49;3.37;;;0.93;;
3601;SDS011;1815;50.950;6.920;2023-01-01T11:35:28;5.73;;;1.30;;
3601;SDS011;1815;50.950;6.920;2023-01-01T11:37:56;3.43;;;1.00;;
3601;SDS011;1815;50.950;6.920;2023-01-01T11:40:24;3.47;;;2.00;;
3601;SDS011;1815;50.950;6.920;2023-01-01T11:42:57;5.23;;;1.27;;
3601;SDS011;1815;50.950;6.920;2023-01-01T11:45:39;4.00;;;1.07;;
3601;SDS011;1815;50.950;6.920;2023-01-01T11:48:13;2.73;;;0.90;;
3601;SDS011;1815;50.950;6.920;2023-01-01T11:50:49;3.00;;;1.03;;
3601;SDS011;1815;50.950;6.920;2023-01-01T11:58:56;3.73;;;1.17;;
3601;SDS011;1815;50.950;6.920;2023-01-01T12:01:46;4.70;;;0.80;;
3601;SDS011;1815;50.950;6.920;2023-01-01T12:14:46;2.87;;;0.90;;
3601;SDS011;1815;50.950;6.920;2023-01-01T12:17:23;3.07;;;1.00;;
3601;SDS011;1815;50.950;6.920;2023-01-01T12:20:08;3.47;;;1.00;;
3601;SDS011;1815;50.950;6.920;2023-01-01T12:22:36;3.30;;;0.90;;
3601;SDS011;1815;50.950;6.920;2023-01-01T12:25:03;3.37;;;1.13;;
3601;SDS011;1815;50.950;6.920;2023-01-01T12:27:39;3.47;;;1.03;;
3601;SDS011;1815;50.950;6.920;2023-01-01T12:30:40;5.63;;;0.90;;
3601;SDS011;1815;50.950;6.920;2023-01-01T12:35:56;3.93;;;1.20;;
3601;SDS011;1815;50.950;6.920;2023-01-01T12:38:31;3.40;;;1.23;;
3601;SDS011;1815;50.950;6.920;2023-01-01T12:51:53;2.40;;;0.90;;
3601;SDS011;1815;50.950;6.920;2023-01-01T12:54:33;4.70;;;1.90;;
3601;SDS011;1815;50.950;6.920;2023-01-01T12:57:29;2.90;;;1.10;;
3601;SDS011;1815;50.950;6.920;2023-01-01T13:00:01;4.90;;;1.13;;
3601;SDS011;1815;50.950;6.920;2023-01-01T13:02:35;1.80;;;0.87;;
3601;SDS011;1815;50.950;6.920;2023-01-01T13:05:19;2.80;;;1.00;;
3601;SDS011;1815;50.950;6.920;2023-01-01T13:07:49;2.60;;;0.93;;
3601;SDS011;1815;50.950;6.920;2023-01-01T13:13:09;3.70;;;1.10;;
3601;SDS011;1815;50.950;6.920;2023-01-01T13:20:38;5.40;;;1.20;;
3601;SDS011;1815;50.950;6.920;2023-01-01T13:23:34;3.70;;;1.43;;
3601;SDS011;1815;50.950;6.920;2023-01-01T13:39:50;3.10;;;1.73;;
3601;SDS011;1815;50.950;6.920;2023-01-01T13:42:44;3.20;;;1.30;;
3601;SDS011;1815;50.950;6.920;2023-01-01T14:01:35;3.20;;;1.10;;
3601;SDS011;1815;50.950;6.920;2023-01-01T14:10:15;3.07;;;1.30;;
3601;SDS011;1815;50.950;6.920;2023-01-01T14:12:43;4.13;;;1.53;;
3601;SDS011;1815;50.950;6.920;2023-01-01T14:15:13;4.70;;;1.10;;
3601;SDS011;1815;50.950;6.920;2023-01-01T14:17:59;3.70;;;1.23;;
3601;SDS011;1815;50.950;6.920;2023-01-01T14:20:40;2.20;;;0.97;;
3601;SDS011;1815;50.950;6.920;2023-01-01T14:23:14;4.40;;;1.60;;
3601;SDS011;1815;50.950;6.920;2023-01-01T14:25:59;3.10;;;1.20;;
3601;SDS011;1815;50.950;6.920;2023-01-01T14:28:28;4.30;;;1.20;;
3601;SDS011;1815;50.950;6.920;2023-01-01T14:30:56;3.83;;;1.50;;
3601;SDS011;1815;50.950;6.920;2023-01-01T14:33:29;7.43;;;2.40;;
3601;SDS011;1815;50.950;6.920;2023-01-01T14:35:57;4.40;;;1.00;;
3601;SDS011;1815;50.950;6.920;2023-01-01T14:38:28;6.23;;;1.77;;
3601;SDS011;1815;50.950;6.920;2023-01-01T14:41:16;5.37;;;0.93;;
3601;SDS011;1815;50.950;6.920;2023-01-01T14:43:50;4.63;;;1.30;;
3601;SDS011;1815;50.950;6.920;2023-01-01T14:46:18;2.67;;;0.90;;
3601;SDS011;1815;50.950;6.920;2023-01-01T14:48:51;2.43;;;0.90;;
3601;SDS011;1815;50.950;6.920;2023-01-01T14:51:23;2.43;;;0.80;;
3601;SDS011;1815;50.950;6.920;2023-01-01T14:53:50;2.53;;;0.90;;
3601;SDS011;1815;50.950;6.920;2023-01-01T14:56:36;2.63;;;1.00;;
3601;SDS011;1815;50.950;6.920;2023-01-01T15:01:35;1.77;;;0.70;;
3601;SDS011;1815;50.950;6.920;2023-01-01T15:04:02;3.50;;;0.77;;
3601;SDS011;1815;50.950;6.920;2023-01-01T15:06:39;3.60;;;0.87;;
3601;SDS011;1815;50.950;6.920;2023-01-01T15:09:05;3.43;;;0.70;;
3601;SDS011;1815;50.950;6.920;2023-01-01T15:11:31;3.70;;;0.80;;
3601;SDS011;1815;50.950;6.920;2023-01-01T15:16:24;1.50;;;0.60;;
3601;SDS011;1815;50.950;6.920;2023-01-01T15:18:50;1.77;;;0.60;;
3601;SDS011;1815;50.950;6.920;2023-01-01T15:26:37;1.83;;;0.70;;
3601;SDS011;1815;50.950;6.920;2023-01-01T15:29:10;2.13;;;0.80;;
3601;SDS011;1815;50.950;6.920;2023-01-01T15:31:41;2.37;;;0.70;;
3601;SDS011;1815;50.950;6.920;2023-01-01T15:34:21;2.23;;;1.13;;
3601;SDS011;1815;50.950;6.920;2023-01-01T15:36:54;1.70;;;0.70;;
3601;SDS011;1815;50.950;6.920;2023-01-01T15:39:21;1.50;;;0.73;;
3601;SDS011;1815;50.950;6.920;2023-01-01T15:41:48;2.83;;;0.73;;
3601;SDS011;1815;50.950;6.920;2023-01-01T15:44:23;1.80;;;0.80;;
3601;SDS011;1815;50.950;6.920;2023-01-01T15:46:49;2.20;;;0.90;;
3601;SDS011;1815;50.950;6.920;2023-01-01T15:49:24;1.53;;;0.70;;
3601;SDS011;1815;50.950;6.920;2023-01-01T15:51:55;3.07;;;0.80;;
3601;SDS011;1815;50.950;6.920;2023-01-01T15:54:24;2.27;;;1.20;;
3601;SDS011;1815;50.950;6.920;2023-01-01T15:56:50;3.20;;;0.90;;
3601;SDS011;1815;50.950;6.920;2023-01-01T16:01:51;2.90;;;0.80;;
3601;SDS011;1815;50.950;6.920;2023-01-01T16:04:26;2.00;;;0.73;;
3601;SDS011;1815;50.950;6.920;2023-01-01T16:06:53;6.33;;;1.20;;
3601;SDS011;1815;50.950;6.920;2023-01-01T16:09:20;3.50;;;1.00;;
3601;SDS011;1815;50.950;6.920;2023-01-01T16:11:52;2.53;;;1.20;;
3601;SDS011;1815;50.950;6.920;2023-01-01T16:14:19;1.93;;;1.03;;
3601;SDS011;1815;50.950;6.920;2023-01-01T16:16:50;4.83;;;2.27;;
3601;SDS011;1815;50.950;6.920;2023-01-01T16:19:19;3.73;;;1.63;;
3601;SDS011;1815;50.950;6.920;2023-01-01T16:21:46;4.17;;;1.67;;
3601;SDS011;1815;50.950;6.920;2023-01-01T16:24:13;4.67;;;2.27;;
3601;SDS011;1815;50.950;6.920;2023-01-01T16:26:41;3.23;;;1.37;;
3601;SDS011;1815;50.950;6.920;2023-01-01T16:29:07;3.80;;;1.50;;
3601;SDS011;1815;50.950;6.920;2023-01-01T16:31:33;4.63;;;1.20;;
3601;SDS011;1815;50.950;6.920;2023-01-01T16:33:58;3.73;;;1.40;;
3601;SDS011;1815;50.950;6.920;2023-01-01T16:36:25;4.50;;;1.50;;
3601;SDS011;1815;50.950;6.920;2023-01-01T16:38:51;5.20;;;3.57;;
3601;SDS011;1815;50.950;6.920;2023-01-01T16:41:17;8.83;;;6.07;;
3601;SDS011;1815;50.950;6.920;2023-01-01T16:43:44;7.87;;;6.10;;
3601;SDS011;1815;50.950;6.920;2023-01-01T16:46:10;8.97;;;5.07;;
3601;SDS011;1815;50.950;6.920;2023-01-01T16:48:36;8.17;;;4.97;;
3601;SDS011;1815;50.950;6.920;2023-01-01T16:51:03;5.40;;;3.07;;
3601;SDS011;1815;50.950;6.920;2023-01-01T16:53:29;6.10;;;3.07;;
3601;SDS011;1815;50.950;6.920;2023-01-01T16:55:56;4.83;;;2.70;;
3601;SDS011;1815;50.950;6.920;2023-01-01T16:58:22;10.30;;;4.97;;
3601;SDS011;1815;50.950;6.920;2023-01-01T17:00:47;3.93;;;2.97;;
3601;SDS011;1815;50.950;6.920;2023-01-01T17:03:14;5.40;;;2.70;;
3601;SDS011;1815;50.950;6.920;2023-01-01T17:05:40;4.70;;;2.47;;
3601;SDS011;1815;50.950;6.920;2023-01-01T17:08:06;5.80;;;3.65;;
3601;SDS011;1815;50.950;6.920;2023-01-01T17:10:32;4.30;;;2.90;;
3601;SDS011;1815;50.950;6.920;2023-01-01T17:12:57;4.33;;;2.23;;
3601;SDS011;1815;50.950;6.920;2023-01-01T17:15:29;4.30;;;2.57;;
3601;SDS011;1815;50.950;6.920;2023-01-01T17:17:56;7.17;;;2.47;;
3601;SDS011;1815;50.950;6.920;2023-01-01T17:20:22;6.57;;;2.87;;
3601;SDS011;1815;50.950;6.920;2023-01-01T17:22:48;6.07;;;2.77;;
3601;SDS011;1815;50.950;6.920;2023-01-01T17:25:14;5.77;;;2.83;;
3601;SDS011;1815;50.950;6.920;2023-01-01T17:27:40;6.87;;;2.47;;
3601;SDS011;1815;50.950;6.920;2023-01-01T17:30:06;4.83;;;2.13;;
3601;SDS011;1815;50.950;6.920;2023-01-01T17:32:33;5.90;;;2.30;;
3601;SDS011;1815;50.950;6.920;2023-01-01T17:34:59;3.60;;;2.07;;
3601;SDS011;1815;50.950;6.920;2023-01-01T17:37:27;5.10;;;2.53;;
3601;SDS011;1815;50.950;6.920;2023-01-01T17:39:53;5.00;;;2.90;;
3601;SDS011;1815;50.950;6.920;2023-01-01T17:42:19;9.50;;;3.80;;
3601;SDS011;1815;50.950;6.920;2023-01-01T17:44:45;9.03;;;5.77;;
3601;SDS011;1815;50.950;6.920;2023-01-01T17:47:11;10.83;;;7.60;;
3601;SDS011;1815;50.950;6.920;2023-01-01T17:49:37;12.37;;;7.40;;
3601;SDS011;1815;50.950;6.920;2023-01-01T17:52:03;9.97;;;5.57;;
3601;SDS011;1815;50.950;6.920;2023-01-01T17:54:28;9.30;;;4.10;;
3601;SDS011;1815;50.950;6.920;2023-01-01T17:56:54;9.70;;;3.67;;
3601;SDS011;1815;50.950;6.920;2023-01-01T17:59:23;9.90;;;6.45;;
3601;SDS011;1815;50.950;6.920;2023-01-01T18:01:49;9.80;;;5.00;;
3601;SDS011;1815;50.950;6.920;2023-01-01T18:04:14;12.03;;;5.60;;
3601;SDS011;1815;50.950;6.920;2023-01-01T18:06:40;7.17;;;4.37;;
3601;SDS011;1815;50.950;6.920;2023-01-01T18:09:06;8.40;;;5.00;;
3601;SDS011;1815;50.950;6.920;2023-01-01T18:11:35;11.68;;;4.80;;
3601;SDS011;1815;50.950;6.920;2023-01-01T18:14:01;6.40;;;4.00;;
3601;SDS011;1815;50.950;6.920;2023-01-01T18:16:29;6.93;;;4.57;;